createdAt,value
2023-05-14T00:01:24.221Z,20.67
2023-05-14T00:03:51.279Z,21.10
2023-05-14T00:06:18.338Z,20.13
2023-05-14T00:08:45.396Z,18.85
2023-05-14T00:11:14.706Z,19.55
2023-05-14T00:13:43.725Z,19.30
2023-05-14T00:16:12.909Z,18.88
2023-05-14T00:18:39.946Z,21.38
2023-05-14T00:21:09.026Z,19.35
2023-05-14T00:23:35.906Z,16.92
2023-05-14T00:26:05.326Z,20.25
2023-05-14T00:28:34.391Z,22.00
2023-05-14T00:31:03.775Z,22.75
2023-05-14T00:33:30.892Z,18.55
2023-05-14T00:36:02.566Z,21.50
2023-05-14T00:38:29.528Z,19.08
2023-05-14T00:40:58.562Z,19.52
2023-05-14T00:43:28.569Z,22.52
2023-05-14T00:45:57.607Z,17.77
2023-05-14T00:48:27.073Z,18.98
2023-05-14T00:50:56.483Z,20.25
2023-05-14T00:53:26.031Z,19.38
2023-05-14T00:55:53.191Z,19.75
2023-05-14T00:58:24.792Z,20.67
2023-05-14T01:00:52.083Z,25.65
2023-05-14T01:03:21.592Z,19.48
2023-05-14T01:06:31.385Z,19.92
2023-05-14T01:09:23.286Z,20.75
2023-05-14T01:12:00.193Z,19.95
2023-05-14T01:14:34.601Z,20.35
2023-05-14T01:17:07.512Z,20.88
2023-05-14T01:19:40.639Z,19.20
2023-05-14T01:22:07.852Z,20.95
2023-05-14T01:24:34.804Z,22.42
2023-05-14T01:27:17.234Z,20.38
2023-05-14T01:29:49.951Z,20.95
2023-05-14T01:32:20.627Z,18.52
2023-05-14T01:34:52.289Z,18.85
2023-05-14T01:37:21.777Z,20.05
2023-05-14T01:39:51.220Z,18.05
2023-05-14T01:42:23.244Z,21.80
2023-05-14T01:44:52.670Z,19.38
2023-05-14T01:47:22.246Z,19.95
2023-05-14T01:49:51.810Z,21.35
2023-05-14T01:52:24.228Z,20.27
2023-05-14T01:54:53.693Z,22.67
2023-05-14T01:57:21.529Z,18.30
2023-05-14T01:59:48.501Z,19.33
2023-05-14T02:02:15.435Z,19.35
2023-05-14T02:04:44.869Z,20.08
2023-05-14T02:07:11.803Z,19.25
2023-05-14T02:09:41.117Z,21.25
2023-05-14T02:12:09.083Z,21.80
2023-05-14T02:14:38.297Z,21.98
2023-05-14T02:17:05.549Z,24.55
2023-05-14T02:19:32.908Z,19.70
2023-05-14T02:22:02.528Z,21.05
2023-05-14T02:24:29.515Z,22.63
2023-05-14T02:26:56.427Z,20.48
2023-05-14T02:29:25.926Z,20.42
2023-05-14T02:31:55.223Z,19.92
2023-05-14T02:34:27.550Z,21.42
2023-05-14T02:36:55.593Z,20.20
2023-05-14T02:39:22.579Z,23.38
2023-05-14T02:41:51.604Z,21.77
2023-05-14T02:44:18.552Z,20.55
2023-05-14T02:46:50.172Z,22.10
2023-05-14T02:49:21.714Z,22.63
2023-05-14T02:51:51.062Z,21.35
2023-05-14T02:54:23.175Z,22.35
2023-05-14T02:56:50.082Z,23.08
2023-05-14T02:59:21.844Z,21.23
2023-05-14T03:01:51.246Z,22.73
2023-05-14T03:04:23.325Z,22.42
2023-05-14T03:06:50.355Z,20.10
2023-05-14T03:09:17.331Z,21.90
2023-05-14T03:11:44.293Z,23.08
2023-05-14T03:14:13.728Z,19.77
2023-05-14T03:16:42.890Z,21.90
2023-05-14T03:19:10.113Z,21.10
2023-05-14T03:21:37.210Z,22.90
2023-05-14T03:24:08.877Z,20.70
2023-05-14T03:26:35.833Z,19.83
2023-05-14T03:29:03.259Z,24.10
2023-05-14T03:31:37.542Z,23.25
2023-05-14T03:36:37.843Z,21.92
2023-05-14T03:39:06.919Z,21.67
2023-05-14T03:41:37.528Z,21.92
2023-05-14T03:44:06.882Z,21.95
2023-05-14T03:46:34.392Z,22.02
2023-05-14T03:49:03.975Z,22.70
2023-05-14T03:51:31.904Z,23.70
2023-05-14T03:53:58.989Z,23.73
2023-05-14T03:56:28.086Z,24.33
2023-05-14T03:58:59.976Z,25.25
2023-05-14T04:01:26.901Z,23.17
2023-05-14T04:03:58.214Z,25.20
2023-05-14T04:06:29.920Z,24.58
2023-05-14T04:08:59.021Z,23.48
2023-05-14T04:11:25.949Z,22.15
2023-05-14T04:13:52.851Z,23.98
2023-05-14T04:16:20.013Z,24.20
2023-05-14T04:18:48.170Z,24.30
2023-05-14T04:21:17.654Z,24.42
2023-05-14T04:23:49.827Z,24.98
2023-05-14T04:26:16.811Z,24.70
2023-05-14T04:28:43.814Z,25.67
2023-05-14T04:31:10.786Z,25.98
2023-05-14T04:33:37.760Z,23.73
2023-05-14T04:36:11.359Z,24.90
2023-05-14T04:38:42.590Z,24.52
2023-05-14T04:41:12.004Z,26.98
2023-05-14T04:43:44.880Z,27.92
2023-05-14T04:46:16.813Z,27.13
2023-05-14T04:48:43.795Z,26.27
2023-05-14T04:51:10.752Z,26.73
2023-05-14T04:53:37.682Z,25.27
2023-05-14T04:56:06.725Z,28.38
2023-05-14T04:58:35.034Z,24.75
2023-05-14T05:01:07.748Z,27.17
2023-05-14T05:03:37.222Z,26.10
2023-05-14T05:06:04.397Z,26.65
2023-05-14T05:08:33.472Z,28.35
2023-05-14T05:11:07.565Z,25.50
2023-05-14T05:13:34.548Z,27.60
2023-05-14T05:16:03.709Z,24.23
2023-05-14T05:18:30.783Z,27.17
2023-05-14T05:20:59.867Z,25.77
2023-05-14T05:23:31.456Z,25.70
2023-05-14T05:26:03.384Z,26.73
2023-05-14T05:28:35.167Z,27.52
2023-05-14T05:31:08.076Z,28.67
2023-05-14T05:33:39.685Z,29.67
2023-05-14T05:36:06.793Z,25.55
2023-05-14T05:38:33.710Z,25.55
2023-05-14T05:41:00.675Z,23.88
2023-05-14T05:43:28.647Z,26.05
2023-05-14T05:45:55.631Z,29.50
2023-05-14T05:48:25.024Z,27.60
2023-05-14T05:50:54.441Z,24.77
2023-05-14T05:53:21.357Z,27.42
2023-05-14T05:55:52.877Z,26.65
2023-05-14T05:58:19.889Z,25.50
2023-05-14T06:00:51.535Z,26.02
2023-05-14T06:03:22.102Z,25.38
2023-05-14T06:05:52.688Z,25.77
2023-05-14T06:08:19.732Z,27.95
2023-05-14T06:10:48.813Z,26.35
2023-05-14T06:13:17.946Z,25.20
2023-05-14T06:15:48.063Z,30.77
2023-05-14T06:18:14.980Z,28.52
2023-05-14T06:20:44.072Z,27.25
2023-05-14T06:23:13.549Z,29.33
2023-05-14T06:25:43.566Z,27.33
2023-05-14T06:28:17.638Z,29.40
2023-05-14T06:30:44.577Z,27.85
2023-05-14T06:33:13.441Z,27.65
2023-05-14T06:35:40.467Z,28.88
2023-05-14T06:38:09.615Z,30.30
2023-05-14T06:40:41.754Z,28.20
2023-05-14T06:43:10.861Z,30.02
2023-05-14T06:45:40.330Z,29.63
2023-05-14T06:48:10.260Z,26.58
2023-05-14T06:53:14.612Z,28.65
2023-05-14T06:55:45.082Z,29.52
2023-05-14T06:58:12.008Z,28.27
2023-05-14T07:00:38.968Z,30.23
2023-05-14T07:03:06.099Z,23.80
2023-05-14T07:05:35.773Z,26.98
2023-05-14T07:08:02.666Z,27.42
2023-05-14T07:10:30.954Z,28.90
2023-05-14T07:12:58.010Z,29.10
2023-05-14T07:15:24.911Z,29.77
2023-05-14T07:17:51.889Z,27.70
2023-05-14T07:20:21.214Z,27.92
2023-05-14T07:22:48.235Z,29.27
2023-05-14T07:25:17.363Z,24.48
2023-05-14T07:27:46.783Z,24.23
2023-05-14T07:30:18.503Z,25.20
2023-05-14T07:32:45.584Z,26.52
2023-05-14T07:35:12.535Z,24.45
2023-05-14T07:37:42.931Z,24.63
2023-05-14T07:40:10.156Z,25.48
2023-05-14T07:42:37.619Z,24.05
2023-05-14T07:45:10.551Z,28.13
2023-05-14T07:47:37.631Z,25.75
2023-05-14T07:50:04.835Z,25.80
2023-05-14T07:52:34.315Z,24.95
2023-05-14T07:55:06.910Z,25.63
2023-05-14T07:57:35.977Z,25.23
2023-05-14T08:00:03.258Z,25.02
2023-05-14T08:02:39.400Z,28.38
2023-05-14T08:05:09.127Z,26.45
2023-05-14T08:07:36.027Z,29.27
2023-05-14T08:10:03.021Z,29.27
2023-05-14T08:12:32.694Z,26.08
2023-05-14T08:15:01.752Z,30.42
2023-05-14T08:17:33.512Z,28.60
2023-05-14T08:20:03.300Z,26.02
2023-05-14T08:22:32.422Z,27.13
2023-05-14T08:25:01.007Z,23.63
2023-05-14T08:27:28.221Z,25.40
2023-05-14T08:29:55.159Z,22.15
2023-05-14T08:32:23.691Z,25.25
2023-05-14T08:34:55.837Z,23.65
2023-05-14T08:37:25.123Z,23.52
2023-05-14T08:39:52.064Z,25.33
2023-05-14T08:42:20.861Z,19.65
2023-05-14T08:44:55.778Z,18.52
2023-05-14T08:47:25.421Z,20.75
2023-05-14T08:50:01.630Z,20.42
2023-05-14T08:52:31.654Z,20.67
2023-05-14T08:55:07.941Z,20.05
2023-05-14T08:57:35.331Z,22.10
2023-05-14T09:00:08.260Z,21.23
2023-05-14T09:02:35.997Z,19.88
2023-05-14T09:05:10.733Z,21.75
2023-05-14T09:07:40.372Z,22.20
2023-05-14T09:10:10.516Z,19.75
2023-05-14T09:12:37.595Z,23.45
2023-05-14T09:15:05.075Z,22.67
2023-05-14T09:17:34.670Z,22.58
2023-05-14T09:20:07.076Z,22.75
2023-05-14T09:22:36.759Z,19.70
2023-05-14T09:25:12.060Z,20.27
2023-05-14T09:27:41.164Z,20.63
2023-05-14T09:30:14.711Z,21.70
2023-05-14T09:32:45.913Z,20.80
2023-05-14T09:35:21.033Z,19.33
2023-05-14T09:37:55.705Z,20.60
2023-05-14T09:40:24.116Z,20.08
2023-05-14T09:42:54.125Z,19.05
2023-05-14T09:45:25.746Z,21.25
2023-05-14T09:48:00.054Z,19.65
2023-05-14T09:50:27.266Z,21.38
2023-05-14T09:52:56.176Z,21.83
2023-05-14T09:55:25.580Z,23.13
2023-05-14T09:57:52.496Z,21.55
2023-05-14T10:00:26.292Z,22.15
2023-05-14T10:02:55.487Z,20.15
2023-05-14T10:05:26.842Z,20.83
2023-05-14T10:07:54.543Z,20.50
2023-05-14T10:10:22.030Z,19.60
2023-05-14T10:13:12.712Z,18.25
2023-05-14T10:15:43.204Z,18.73
2023-05-14T10:18:13.560Z,19.52
2023-05-14T10:20:41.146Z,20.52
2023-05-14T10:23:08.171Z,20.38
2023-05-14T10:25:38.017Z,21.20
2023-05-14T10:28:06.072Z,18.52
2023-05-14T10:30:33.114Z,18.83
2023-05-14T10:33:13.710Z,18.25
2023-05-14T10:36:06.290Z,20.65
2023-05-14T10:38:34.683Z,22.48
2023-05-14T10:41:05.383Z,19.92
2023-05-14T10:43:43.459Z,21.42
2023-05-14T10:46:16.508Z,19.33
2023-05-14T10:48:45.721Z,20.27
2023-05-14T10:51:17.621Z,21.98
2023-05-14T10:53:44.620Z,18.55
2023-05-14T10:56:14.393Z,18.55
2023-05-14T10:58:44.870Z,19.35
2023-05-14T11:01:15.064Z,19.73
2023-05-14T11:03:50.279Z,20.25
2023-05-14T11:06:17.213Z,19.27
2023-05-14T11:08:46.898Z,19.02
2023-05-14T11:11:13.893Z,19.35
2023-05-14T11:13:41.556Z,20.55
2023-05-14T11:16:23.361Z,19.98
2023-05-14T11:19:00.836Z,19.90
2023-05-14T11:21:30.279Z,21.30
2023-05-14T11:24:03.779Z,20.90
2023-05-14T11:26:31.751Z,18.52
2023-05-14T11:29:03.022Z,17.05
2023-05-14T11:31:34.911Z,18.10
2023-05-14T11:34:05.957Z,17.17
2023-05-14T11:36:36.871Z,19.92
2023-05-14T11:39:03.857Z,18.25
2023-05-14T11:41:32.854Z,19.88
2023-05-14T11:44:00.376Z,15.27
2023-05-14T11:46:30.976Z,15.50
2023-05-14T11:49:00.411Z,15.65
2023-05-14T11:51:29.816Z,17.05
2023-05-14T11:53:59.378Z,18.23
2023-05-14T11:56:26.353Z,16.98
2023-05-14T11:58:57.154Z,16.40
2023-05-14T12:01:30.172Z,19.38
2023-05-14T12:04:01.893Z,15.48
2023-05-14T12:06:36.580Z,14.93
2023-05-14T12:09:05.541Z,16.10
2023-05-14T12:11:38.277Z,13.93
2023-05-14T12:14:18.982Z,18.52
2023-05-14T12:16:46.817Z,15.75
2023-05-14T12:19:18.632Z,18.55
2023-05-14T12:21:48.384Z,17.92
2023-05-14T12:24:17.753Z,17.30
2023-05-14T12:26:47.595Z,17.30
2023-05-14T12:29:15.093Z,15.73
2023-05-14T12:31:49.058Z,14.90
2023-05-14T12:34:16.591Z,17.67
2023-05-14T12:36:46.575Z,15.13
2023-05-14T12:39:18.214Z,15.77
2023-05-14T12:41:45.246Z,14.57
2023-05-14T12:44:14.473Z,13.10
2023-05-14T12:46:41.633Z,15.40
2023-05-14T12:49:08.635Z,13.15
2023-05-14T12:51:35.528Z,13.60
2023-05-14T12:54:02.524Z,15.23
2023-05-14T12:56:31.013Z,12.73
2023-05-14T12:58:57.966Z,11.70
2023-05-14T13:01:24.998Z,12.70
2023-05-14T13:03:52.034Z,15.18
2023-05-14T13:06:25.630Z,13.10
2023-05-14T13:08:56.815Z,18.40
2023-05-14T13:11:27.158Z,11.65
2023-05-14T13:13:56.307Z,14.30
2023-05-14T13:16:23.259Z,10.65
2023-05-14T13:18:52.407Z,12.32
2023-05-14T13:21:19.489Z,11.40
2023-05-14T13:23:50.144Z,12.63
2023-05-14T13:26:17.111Z,12.98
2023-05-14T13:28:46.366Z,10.93
2023-05-14T13:31:16.023Z,10.65
2023-05-14T13:33:43.575Z,10.25
2023-05-14T13:36:13.504Z,8.65
2023-05-14T13:38:43.556Z,10.85
2023-05-14T13:41:10.575Z,10.98
2023-05-14T13:43:42.699Z,9.10
2023-05-14T13:46:09.770Z,8.05
2023-05-14T13:48:42.067Z,7.65
2023-05-14T13:51:11.304Z,8.35
2023-05-14T13:53:40.679Z,9.48
2023-05-14T13:56:10.169Z,10.13
2023-05-14T13:58:37.103Z,9.88
2023-05-14T14:01:06.307Z,9.65
2023-05-14T14:03:35.436Z,8.43
2023-05-14T14:06:04.918Z,9.27
2023-05-14T14:08:31.864Z,10.27
2023-05-14T14:10:58.779Z,9.25
2023-05-14T14:13:32.573Z,9.90
2023-05-14T14:15:59.580Z,9.98
2023-05-14T14:18:28.717Z,8.95
2023-05-14T14:20:58.747Z,9.23
2023-05-14T14:23:27.945Z,9.20
2023-05-14T14:25:54.857Z,10.27
2023-05-14T14:28:24.028Z,9.15
2023-05-14T14:30:50.940Z,9.82
2023-05-14T14:33:17.878Z,9.05
2023-05-14T14:35:44.855Z,11.30
2023-05-14T14:38:14.668Z,12.20
2023-05-14T14:40:41.639Z,10.55
2023-05-14T14:43:10.854Z,11.02
2023-05-14T14:45:37.842Z,12.88
2023-05-14T14:48:26.260Z,11.73
2023-05-14T14:50:55.909Z,12.20
2023-05-14T14:53:27.665Z,13.25
2023-05-14T14:55:57.056Z,11.38
2023-05-14T14:58:27.446Z,11.15
2023-05-14T15:00:57.548Z,10.38
2023-05-14T15:03:25.062Z,11.68
2023-05-14T15:05:53.600Z,11.40
2023-05-14T15:08:24.108Z,13.32
2023-05-14T15:10:53.684Z,14.13
2023-05-14T15:13:23.254Z,10.45
2023-05-14T15:15:52.841Z,11.93
2023-05-14T15:18:22.591Z,12.50
2023-05-14T15:20:52.196Z,10.82
2023-05-14T15:23:19.232Z,9.77
2023-05-14T15:25:49.506Z,9.80
2023-05-14T15:28:19.054Z,9.73
2023-05-14T15:30:47.724Z,9.02
2023-05-14T15:33:19.108Z,8.95
2023-05-14T15:35:46.293Z,11.43
2023-05-14T15:38:13.268Z,10.07
2023-05-14T15:40:40.685Z,9.43
2023-05-14T15:43:07.684Z,7.53
2023-05-14T15:45:34.586Z,8.70
2023-05-14T15:48:03.938Z,10.32
2023-05-14T15:50:30.942Z,10.27
2023-05-14T15:52:57.906Z,10.55
2023-05-14T15:55:27.329Z,8.10
2023-05-14T15:57:54.216Z,9.38
2023-05-14T16:00:25.321Z,7.97
2023-05-14T16:02:52.894Z,7.40
2023-05-14T16:05:22.129Z,8.25
2023-05-14T16:07:49.080Z,8.02
2023-05-14T16:10:16.037Z,8.55
2023-05-14T16:12:42.962Z,8.93
2023-05-14T16:15:10.323Z,7.78
2023-05-14T16:17:37.419Z,7.55
2023-05-14T16:20:07.949Z,7.05
2023-05-14T16:22:36.209Z,7.78
2023-05-14T16:25:08.214Z,7.28
2023-05-14T16:27:35.146Z,7.85
2023-05-14T16:30:02.131Z,7.93
2023-05-14T16:32:31.575Z,7.35
2023-05-14T16:35:03.248Z,7.93
2023-05-14T16:37:32.597Z,8.38
2023-05-14T16:40:01.672Z,7.80
2023-05-14T16:42:28.714Z,9.90
2023-05-14T16:45:00.421Z,7.78
2023-05-14T16:47:29.662Z,9.13
2023-05-14T16:49:56.587Z,8.32
2023-05-14T16:52:23.523Z,8.07
2023-05-14T16:54:52.547Z,8.15
2023-05-14T16:57:19.486Z,8.57
2023-05-14T16:59:48.552Z,6.07
2023-05-14T17:02:18.110Z,9.50
2023-05-14T17:04:47.307Z,8.93
2023-05-14T17:07:16.649Z,9.63
2023-05-14T17:09:43.630Z,7.88
2023-05-14T17:12:14.041Z,8.80
2023-05-14T17:14:43.084Z,7.40
2023-05-14T17:17:12.400Z,9.77
2023-05-14T17:19:39.325Z,8.05
2023-05-14T17:22:07.299Z,8.05
2023-05-14T17:24:38.986Z,7.90
2023-05-14T17:27:08.201Z,7.00
2023-05-14T17:29:39.833Z,8.60
2023-05-14T17:32:09.306Z,9.15
2023-05-14T17:34:40.908Z,9.85
2023-05-14T17:37:10.863Z,9.07
2023-05-14T17:39:37.787Z,8.43
2023-05-14T17:42:05.089Z,8.38
2023-05-14T17:44:32.059Z,8.90
2023-05-14T17:47:00.376Z,8.27
2023-05-14T17:49:27.428Z,7.72
2023-05-14T17:51:54.404Z,8.85
2023-05-14T17:54:23.593Z,8.48
2023-05-14T17:56:51.087Z,8.77
2023-05-14T17:59:18.012Z,9.48
2023-05-14T18:01:45.015Z,8.15
2023-05-14T18:04:16.568Z,7.82
2023-05-14T18:06:45.745Z,7.28
2023-05-14T18:09:12.772Z,10.63
2023-05-14T18:11:41.953Z,10.25
2023-05-14T18:14:13.674Z,13.98
2023-05-14T18:16:42.784Z,16.88
2023-05-14T18:19:12.373Z,17.90
2023-05-14T18:21:39.385Z,20.52
2023-05-14T18:24:08.853Z,20.02
2023-05-14T18:26:35.811Z,20.15
2023-05-14T18:29:07.440Z,21.52
2023-05-14T18:31:34.564Z,24.33
2023-05-14T18:34:04.184Z,24.02
2023-05-14T18:36:33.252Z,23.98
2023-05-14T18:39:00.289Z,25.55
2023-05-14T18:41:34.511Z,25.92
2023-05-14T18:44:02.362Z,23.67
2023-05-14T18:46:33.672Z,24.00
2023-05-14T18:49:00.613Z,24.50
2023-05-14T18:51:32.439Z,25.38
2023-05-14T18:54:01.905Z,24.58
2023-05-14T18:56:28.850Z,24.10
2023-05-14T18:58:58.299Z,24.48
2023-05-14T19:01:30.052Z,22.60
2023-05-14T19:04:03.813Z,24.08
2023-05-14T19:06:32.743Z,21.83
2023-05-14T19:08:59.732Z,23.58
2023-05-14T19:11:26.829Z,22.23
2023-05-14T19:13:53.761Z,23.63
2023-05-14T19:16:28.054Z,22.33
2023-05-14T19:18:55.097Z,23.83
2023-05-14T19:21:26.538Z,28.02
2023-05-14T19:23:53.476Z,22.00
2023-05-14T19:26:21.610Z,24.08
2023-05-14T19:28:58.393Z,24.98
2023-05-14T19:31:30.038Z,24.48
2023-05-14T19:34:01.553Z,23.33
2023-05-14T19:36:34.006Z,24.83
2023-05-14T19:39:03.589Z,23.73
2023-05-14T19:41:35.243Z,22.75
2023-05-14T19:44:02.171Z,27.20
2023-05-14T19:46:29.174Z,25.17
2023-05-14T19:48:58.362Z,24.13
2023-05-14T19:51:30.589Z,26.50
2023-05-14T19:53:57.568Z,24.40
2023-05-14T19:56:27.411Z,24.63
2023-05-14T19:58:56.648Z,24.35
2023-05-14T20:01:26.854Z,26.08
2023-05-14T20:03:56.339Z,25.48
2023-05-14T20:06:25.762Z,25.63
2023-05-14T20:09:00.335Z,25.42
2023-05-14T20:13:56.581Z,26.30
2023-05-14T20:16:26.126Z,24.67
2023-05-14T20:18:57.633Z,24.30
2023-05-14T20:21:24.650Z,23.42
2023-05-14T20:23:51.660Z,24.98
2023-05-14T20:26:26.534Z,23.98
2023-05-14T20:28:55.637Z,20.85
2023-05-14T20:31:22.681Z,25.52
2023-05-14T20:33:49.668Z,17.95
2023-05-14T20:36:17.001Z,24.38
2023-05-14T20:38:43.970Z,24.67
2023-05-14T20:41:15.883Z,20.63
2023-05-14T20:43:45.211Z,23.55
2023-05-14T20:48:44.226Z,20.75
2023-05-14T20:51:11.163Z,22.30
2023-05-14T20:53:39.171Z,20.50
2023-05-14T20:56:06.775Z,19.13
2023-05-14T20:58:37.098Z,19.17
2023-05-14T21:01:04.885Z,19.92
2023-05-14T21:03:37.086Z,18.33
2023-05-14T21:06:06.606Z,18.73
2023-05-14T21:08:40.356Z,17.67
2023-05-14T21:11:07.750Z,15.05
2023-05-14T21:13:34.713Z,20.92
2023-05-14T21:16:01.991Z,18.17
2023-05-14T21:18:32.465Z,29.45
2023-05-14T21:20:59.438Z,42.22
2023-05-14T21:23:31.211Z,27.98
2023-05-14T21:26:00.296Z,15.25
2023-05-14T21:28:32.567Z,13.57
2023-05-14T21:30:59.504Z,12.80
2023-05-14T21:33:26.488Z,14.32
2023-05-14T21:35:53.479Z,9.70
2023-05-14T21:38:23.107Z,9.63
2023-05-14T21:40:52.258Z,8.95
2023-05-14T21:43:19.421Z,10.52
2023-05-14T21:45:49.104Z,8.75
2023-05-14T21:48:18.339Z,8.80
2023-05-14T21:50:45.271Z,9.18
2023-05-14T21:53:12.509Z,8.20
2023-05-14T21:55:41.748Z,8.18
2023-05-14T21:58:08.689Z,5.50
2023-05-14T22:00:37.869Z,7.18
2023-05-14T22:03:09.752Z,7.22
2023-05-14T22:05:38.953Z,6.13
2023-05-14T22:08:08.361Z,5.38
2023-05-14T22:10:37.558Z,7.35
2023-05-14T22:13:04.559Z,6.60
2023-05-14T22:15:33.705Z,6.35
2023-05-14T22:18:00.686Z,4.05
2023-05-14T22:20:27.646Z,4.18
2023-05-14T22:23:01.279Z,4.40
2023-05-14T22:25:30.296Z,4.00
2023-05-14T22:28:02.520Z,7.18
2023-05-14T22:30:29.474Z,4.65
2023-05-14T22:32:56.413Z,4.35
2023-05-14T22:35:23.614Z,3.65
2023-05-14T22:37:55.487Z,3.92
2023-05-14T22:40:27.085Z,4.13
2023-05-14T22:43:00.936Z,2.78
2023-05-14T22:45:35.309Z,3.85
2023-05-14T22:48:02.457Z,3.78
2023-05-14T22:50:31.604Z,4.45
2023-05-14T22:53:00.794Z,4.75
2023-05-14T22:55:28.005Z,5.05
2023-05-14T22:57:57.248Z,3.22
2023-05-14T23:00:30.859Z,2.95
2023-05-14T23:03:00.321Z,3.13
2023-05-14T23:05:27.425Z,3.58
2023-05-14T23:07:56.608Z,2.90
2023-05-14T23:10:23.490Z,2.38
2023-05-14T23:12:50.460Z,2.88
2023-05-14T23:15:17.436Z,3.10
2023-05-14T23:17:44.565Z,3.25
2023-05-14T23:20:14.948Z,6.35
2023-05-14T23:22:44.127Z,4.05
2023-05-14T23:25:11.067Z,3.17
2023-05-14T23:27:38.019Z,3.10
2023-05-14T23:30:05.376Z,3.33
2023-05-14T23:32:32.297Z,2.78
2023-05-14T23:35:01.431Z,4.53
2023-05-14T23:37:30.610Z,3.20
2023-05-14T23:40:02.095Z,3.13
2023-05-14T23:42:31.499Z,2.90
2023-05-14T23:44:58.399Z,2.92
2023-05-14T23:47:27.901Z,2.80
2023-05-14T23:49:57.871Z,3.83
2023-05-14T23:54:54.225Z,4.57
2023-05-14T23:57:21.212Z,4.25
2023-05-14T23:59:50.658Z,2.90
